sensor_id;sensor_type;location;lat;lon;timestamp;P1;durP1;ratioP1;P2;durP2;ratioP2
45059;SDS011;30799;49.060;9.312;2022-08-19T00:00:21;8.15;;;7.50;;
45059;SDS011;30799;49.060;9.312;2022-08-19T00:02:48;8.95;;;8.15;;
45059;SDS011;30799;49.060;9.312;2022-08-19T00:05:16;7.55;;;6.90;;
45059;SDS011;30799;49.060;9.312;2022-08-19T00:07:43;8.52;;;7.80;;
45059;SDS011;30799;49.060;9.312;2022-08-19T00:10:11;7.43;;;6.82;;
45059;SDS011;30799;49.060;9.312;2022-08-19T00:12:39;7.85;;;7.25;;
45059;SDS011;30799;49.060;9.312;2022-08-19T00:15:13;7.70;;;7.10;;
45059;SDS011;30799;49.060;9.312;2022-08-19T00:17:42;7.90;;;7.20;;
45059;SDS011;30799;49.060;9.312;2022-08-19T00:20:11;7.63;;;7.03;;
45059;SDS011;30799;49.060;9.312;2022-08-19T00:22:43;7.57;;;6.97;;
45059;SDS011;30799;49.060;9.312;2022-08-19T00:25:11;7.82;;;7.22;;
45059;SDS011;30799;49.060;9.312;2022-08-19T00:27:40;7.85;;;7.20;;
45059;SDS011;30799;49.060;9.312;2022-08-19T00:30:07;7.80;;;7.10;;
45059;SDS011;30799;49.060;9.312;2022-08-19T00:32:36;7.75;;;7.15;;
45059;SDS011;30799;49.060;9.312;2022-08-19T00:35:04;7.90;;;7.30;;
45059;SDS011;30799;49.060;9.312;2022-08-19T00:37:32;7.45;;;6.88;;
45059;SDS011;30799;49.060;9.312;2022-08-19T00:40:00;8.32;;;7.68;;
45059;SDS011;30799;49.060;9.312;2022-08-19T00:42:29;7.55;;;6.95;;
45059;SDS011;30799;49.060;9.312;2022-08-19T00:44:56;7.82;;;7.15;;
45059;SDS011;30799;49.060;9.312;2022-08-19T00:47:23;7.88;;;7.25;;
45059;SDS011;30799;49.060;9.312;2022-08-19T00:49:51;7.50;;;6.80;;
45059;SDS011;30799;49.060;9.312;2022-08-19T00:52:23;8.15;;;7.55;;
45059;SDS011;30799;49.060;9.312;2022-08-19T00:54:57;7.63;;;7.03;;
45059;SDS011;30799;49.060;9.312;2022-08-19T00:57:30;7.85;;;7.15;;
45059;SDS011;30799;49.060;9.312;2022-08-19T01:00:01;6.95;;;6.32;;
45059;SDS011;30799;49.060;9.312;2022-08-19T01:02:36;7.97;;;7.28;;
45059;SDS011;30799;49.060;9.312;2022-08-19T01:05:05;7.70;;;7.10;;
45059;SDS011;30799;49.060;9.312;2022-08-19T01:10:04;7.65;;;6.93;;
45059;SDS011;30799;49.060;9.312;2022-08-19T01:12:34;7.47;;;6.88;;
45059;SDS011;30799;49.060;9.312;2022-08-19T01:15:01;7.75;;;7.15;;
45059;SDS011;30799;49.060;9.312;2022-08-19T01:17:29;7.45;;;6.85;;
45059;SDS011;30799;49.060;9.312;2022-08-19T01:19:56;7.40;;;6.80;;
45059;SDS011;30799;49.060;9.312;2022-08-19T01:24:55;7.30;;;6.70;;
45059;SDS011;30799;49.060;9.312;2022-08-19T01:27:24;7.97;;;7.35;;
45059;SDS011;30799;49.060;9.312;2022-08-19T01:29:51;7.45;;;6.80;;
45059;SDS011;30799;49.060;9.312;2022-08-19T01:32:17;7.53;;;6.93;;
45059;SDS011;30799;49.060;9.312;2022-08-19T01:34:59;6.55;;;5.95;;
45059;SDS011;30799;49.060;9.312;2022-08-19T01:37:28;7.22;;;6.68;;
45059;SDS011;30799;49.060;9.312;2022-08-19T01:39:56;7.35;;;6.75;;
45059;SDS011;30799;49.060;9.312;2022-08-19T01:42:23;7.50;;;6.90;;
45059;SDS011;30799;49.060;9.312;2022-08-19T01:44:55;7.18;;;6.50;;
45059;SDS011;30799;49.060;9.312;2022-08-19T01:47:22;6.82;;;6.30;;
45059;SDS011;30799;49.060;9.312;2022-08-19T01:49:49;7.22;;;6.63;;
45059;SDS011;30799;49.060;9.312;2022-08-19T01:52:15;7.07;;;6.57;;
45059;SDS011;30799;49.060;9.312;2022-08-19T01:54:42;7.30;;;6.70;;
45059;SDS011;30799;49.060;9.312;2022-08-19T01:57:12;7.05;;;6.53;;
45059;SDS011;30799;49.060;9.312;2022-08-19T01:59:40;7.70;;;7.10;;
45059;SDS011;30799;49.060;9.312;2022-08-19T02:02:09;7.55;;;6.95;;
45059;SDS011;30799;49.060;9.312;2022-08-19T02:04:36;7.57;;;6.97;;
45059;SDS011;30799;49.060;9.312;2022-08-19T02:07:06;7.40;;;6.80;;
45059;SDS011;30799;49.060;9.312;2022-08-19T02:09:34;7.28;;;6.68;;
45059;SDS011;30799;49.060;9.312;2022-08-19T02:12:01;7.45;;;6.85;;
45059;SDS011;30799;49.060;9.312;2022-08-19T02:14:28;7.40;;;6.80;;
45059;SDS011;30799;49.060;9.312;2022-08-19T02:16:55;7.13;;;6.53;;
45059;SDS011;30799;49.060;9.312;2022-08-19T02:19:22;7.18;;;6.60;;
45059;SDS011;30799;49.060;9.312;2022-08-19T02:21:48;7.85;;;7.15;;
45059;SDS011;30799;49.060;9.312;2022-08-19T02:24:15;6.85;;;6.35;;
45059;SDS011;30799;49.060;9.312;2022-08-19T02:26:42;7.15;;;6.60;;
45059;SDS011;30799;49.060;9.312;2022-08-19T02:29:09;7.88;;;7.28;;
45059;SDS011;30799;49.060;9.312;2022-08-19T02:31:35;6.90;;;6.40;;
45059;SDS011;30799;49.060;9.312;2022-08-19T02:34:02;7.40;;;6.80;;
45059;SDS011;30799;49.060;9.312;2022-08-19T02:36:29;7.30;;;6.70;;
45059;SDS011;30799;49.060;9.312;2022-08-19T02:38:56;7.80;;;7.20;;
45059;SDS011;30799;49.060;9.312;2022-08-19T02:41:24;7.07;;;6.55;;
45059;SDS011;30799;49.060;9.312;2022-08-19T02:43:53;6.80;;;6.30;;
45059;SDS011;30799;49.060;9.312;2022-08-19T02:46:41;6.72;;;6.15;;
45059;SDS011;30799;49.060;9.312;2022-08-19T02:49:08;7.05;;;6.43;;
45059;SDS011;30799;49.060;9.312;2022-08-19T02:51:38;7.13;;;6.63;;
45059;SDS011;30799;49.060;9.312;2022-08-19T02:54:09;7.50;;;6.85;;
45059;SDS011;30799;49.060;9.312;2022-08-19T02:56:38;6.38;;;5.78;;
45059;SDS011;30799;49.060;9.312;2022-08-19T02:59:06;6.75;;;6.25;;
45059;SDS011;30799;49.060;9.312;2022-08-19T03:01:36;7.03;;;6.35;;
45059;SDS011;30799;49.060;9.312;2022-08-19T03:04:06;7.00;;;6.50;;
45059;SDS011;30799;49.060;9.312;2022-08-19T03:06:36;7.05;;;6.45;;
45059;SDS011;30799;49.060;9.312;2022-08-19T03:09:04;6.55;;;6.05;;
45059;SDS011;30799;49.060;9.312;2022-08-19T03:11:31;6.90;;;6.35;;
45059;SDS011;30799;49.060;9.312;2022-08-19T03:13:58;6.82;;;6.30;;
45059;SDS011;30799;49.060;9.312;2022-08-19T03:16:27;6.88;;;6.38;;
45059;SDS011;30799;49.060;9.312;2022-08-19T03:18:58;6.82;;;6.32;;
45059;SDS011;30799;49.060;9.312;2022-08-19T03:21:27;7.18;;;6.57;;
45059;SDS011;30799;49.060;9.312;2022-08-19T03:23:57;6.85;;;6.35;;
45059;SDS011;30799;49.060;9.312;2022-08-19T03:26:27;6.47;;;5.97;;
45059;SDS011;30799;49.060;9.312;2022-08-19T03:28:55;6.72;;;6.22;;
45059;SDS011;30799;49.060;9.312;2022-08-19T03:31:24;6.80;;;6.30;;
45059;SDS011;30799;49.060;9.312;2022-08-19T03:34:13;6.60;;;6.10;;
45059;SDS011;30799;49.060;9.312;2022-08-19T03:36:41;6.60;;;6.10;;
45059;SDS011;30799;49.060;9.312;2022-08-19T03:39:09;6.90;;;6.40;;
45059;SDS011;30799;49.060;9.312;2022-08-19T03:41:38;6.70;;;6.20;;
45059;SDS011;30799;49.060;9.312;2022-08-19T03:44:15;6.78;;;6.28;;
45059;SDS011;30799;49.060;9.312;2022-08-19T03:46:55;6.65;;;6.15;;
45059;SDS011;30799;49.060;9.312;2022-08-19T03:49:24;6.38;;;5.88;;
45059;SDS011;30799;49.060;9.312;2022-08-19T03:51:54;6.63;;;6.13;;
45059;SDS011;30799;49.060;9.312;2022-08-19T03:54:23;6.65;;;6.13;;
45059;SDS011;30799;49.060;9.312;2022-08-19T03:56:51;7.00;;;6.40;;
45059;SDS011;30799;49.060;9.312;2022-08-19T03:59:22;6.82;;;6.32;;
45059;SDS011;30799;49.060;9.312;2022-08-19T04:01:55;6.43;;;5.93;;
45059;SDS011;30799;49.060;9.312;2022-08-19T04:04:24;6.57;;;6.07;;
45059;SDS011;30799;49.060;9.312;2022-08-19T04:06:54;7.35;;;6.75;;
45059;SDS011;30799;49.060;9.312;2022-08-19T04:09:22;6.55;;;6.05;;
45059;SDS011;30799;49.060;9.312;2022-08-19T04:11:49;6.68;;;6.07;;
45059;SDS011;30799;49.060;9.312;2022-08-19T04:14:22;7.00;;;6.40;;
45059;SDS011;30799;49.060;9.312;2022-08-19T04:16:50;6.78;;;6.15;;
45059;SDS011;30799;49.060;9.312;2022-08-19T04:19:19;6.60;;;6.10;;
45059;SDS011;30799;49.060;9.312;2022-08-19T04:21:47;6.70;;;6.10;;
45059;SDS011;30799;49.060;9.312;2022-08-19T04:24:16;6.88;;;6.28;;
45059;SDS011;30799;49.060;9.312;2022-08-19T04:26:43;6.65;;;6.15;;
45059;SDS011;30799;49.060;9.312;2022-08-19T04:29:12;6.40;;;5.90;;
45059;SDS011;30799;49.060;9.312;2022-08-19T04:31:44;6.70;;;6.20;;
45059;SDS011;30799;49.060;9.312;2022-08-19T04:34:13;6.50;;;6.00;;
45059;SDS011;30799;49.060;9.312;2022-08-19T04:36:42;6.53;;;6.03;;
45059;SDS011;30799;49.060;9.312;2022-08-19T04:39:12;6.90;;;6.30;;
45059;SDS011;30799;49.060;9.312;2022-08-19T04:41:41;6.28;;;5.78;;
45059;SDS011;30799;49.060;9.312;2022-08-19T04:44:27;6.70;;;6.20;;
45059;SDS011;30799;49.060;9.312;2022-08-19T04:46:58;6.53;;;6.03;;
45059;SDS011;30799;49.060;9.312;2022-08-19T04:49:26;6.47;;;5.97;;
45059;SDS011;30799;49.060;9.312;2022-08-19T04:51:53;6.47;;;5.97;;
45059;SDS011;30799;49.060;9.312;2022-08-19T04:54:21;6.90;;;6.35;;
45059;SDS011;30799;49.060;9.312;2022-08-19T04:57:04;18.45;;;16.02;;
45059;SDS011;30799;49.060;9.312;2022-08-19T04:59:36;19.90;;;17.77;;
45059;SDS011;30799;49.060;9.312;2022-08-19T05:02:03;21.30;;;17.30;;
45059;SDS011;30799;49.060;9.312;2022-08-19T05:04:31;20.42;;;18.13;;
45059;SDS011;30799;49.060;9.312;2022-08-19T05:06:59;20.65;;;18.35;;
45059;SDS011;30799;49.060;9.312;2022-08-19T05:09:27;20.02;;;17.92;;
45059;SDS011;30799;49.060;9.312;2022-08-19T05:12:15;21.30;;;18.60;;
45059;SDS011;30799;49.060;9.312;2022-08-19T05:14:43;19.88;;;17.38;;
45059;SDS011;30799;49.060;9.312;2022-08-19T05:17:12;21.48;;;19.05;;
45059;SDS011;30799;49.060;9.312;2022-08-19T05:19:59;23.48;;;19.00;;
45059;SDS011;30799;49.060;9.312;2022-08-19T05:22:45;24.38;;;19.55;;
45059;SDS011;30799;49.060;9.312;2022-08-19T05:25:15;21.67;;;18.40;;
45059;SDS011;30799;49.060;9.312;2022-08-19T05:27:47;23.98;;;20.17;;
45059;SDS011;30799;49.060;9.312;2022-08-19T05:30:14;23.67;;;18.95;;
45059;SDS011;30799;49.060;9.312;2022-08-19T05:32:41;22.83;;;18.92;;
45059;SDS011;30799;49.060;9.312;2022-08-19T05:35:08;23.20;;;18.55;;
45059;SDS011;30799;49.060;9.312;2022-08-19T05:37:35;21.95;;;17.33;;
45059;SDS011;30799;49.060;9.312;2022-08-19T05:40:02;23.65;;;17.75;;
45059;SDS011;30799;49.060;9.312;2022-08-19T05:42:30;19.45;;;16.65;;
45059;SDS011;30799;49.060;9.312;2022-08-19T05:44:57;20.45;;;16.38;;
45059;SDS011;30799;49.060;9.312;2022-08-19T05:47:24;21.50;;;15.45;;
45059;SDS011;30799;49.060;9.312;2022-08-19T05:49:50;18.88;;;14.85;;
45059;SDS011;30799;49.060;9.312;2022-08-19T05:52:18;18.52;;;14.45;;
45059;SDS011;30799;49.060;9.312;2022-08-19T05:54:51;19.23;;;15.13;;
45059;SDS011;30799;49.060;9.312;2022-08-19T05:57:20;17.17;;;15.05;;
45059;SDS011;30799;49.060;9.312;2022-08-19T05:59:47;16.50;;;14.25;;
45059;SDS011;30799;49.060;9.312;2022-08-19T06:02:23;16.52;;;14.75;;
45059;SDS011;30799;49.060;9.312;2022-08-19T06:04:53;16.90;;;15.05;;
45059;SDS011;30799;49.060;9.312;2022-08-19T06:07:20;16.92;;;14.82;;
45059;SDS011;30799;49.060;9.312;2022-08-19T06:09:47;17.00;;;14.45;;
45059;SDS011;30799;49.060;9.312;2022-08-19T06:12:26;15.48;;;13.80;;
45059;SDS011;30799;49.060;9.312;2022-08-19T06:15:00;15.23;;;13.63;;
45059;SDS011;30799;49.060;9.312;2022-08-19T06:17:30;15.23;;;13.60;;
45059;SDS011;30799;49.060;9.312;2022-08-19T06:19:58;16.70;;;14.32;;
45059;SDS011;30799;49.060;9.312;2022-08-19T06:22:26;16.90;;;14.27;;
45059;SDS011;30799;49.060;9.312;2022-08-19T06:24:53;14.73;;;12.68;;
45059;SDS011;30799;49.060;9.312;2022-08-19T06:27:21;13.73;;;12.02;;
45059;SDS011;30799;49.060;9.312;2022-08-19T06:29:49;15.45;;;13.93;;
45059;SDS011;30799;49.060;9.312;2022-08-19T06:32:16;14.35;;;12.85;;
45059;SDS011;30799;49.060;9.312;2022-08-19T06:34:44;14.45;;;12.95;;
45059;SDS011;30799;49.060;9.312;2022-08-19T06:37:11;14.25;;;12.57;;
45059;SDS011;30799;49.060;9.312;2022-08-19T06:39:39;14.70;;;13.13;;
45059;SDS011;30799;49.060;9.312;2022-08-19T06:42:07;14.23;;;12.80;;
45059;SDS011;30799;49.060;9.312;2022-08-19T06:44:38;15.40;;;13.35;;
45059;SDS011;30799;49.060;9.312;2022-08-19T06:47:10;14.55;;;13.15;;
45059;SDS011;30799;49.060;9.312;2022-08-19T06:49:52;14.73;;;13.32;;
45059;SDS011;30799;49.060;9.312;2022-08-19T06:52:26;13.65;;;12.25;;
45059;SDS011;30799;49.060;9.312;2022-08-19T06:54:53;13.85;;;12.52;;
45059;SDS011;30799;49.060;9.312;2022-08-19T06:57:24;14.55;;;13.15;;
45059;SDS011;30799;49.060;9.312;2022-08-19T06:59:52;15.00;;;12.80;;
45059;SDS011;30799;49.060;9.312;2022-08-19T07:02:19;14.23;;;12.73;;
45059;SDS011;30799;49.060;9.312;2022-08-19T07:04:46;13.82;;;12.43;;
45059;SDS011;30799;49.060;9.312;2022-08-19T07:07:18;13.52;;;12.18;;
45059;SDS011;30799;49.060;9.312;2022-08-19T07:09:47;13.57;;;12.18;;
45059;SDS011;30799;49.060;9.312;2022-08-19T07:12:26;13.45;;;12.05;;
45059;SDS011;30799;49.060;9.312;2022-08-19T07:15:01;13.15;;;11.85;;
45059;SDS011;30799;49.060;9.312;2022-08-19T07:17:29;13.45;;;12.10;;
45059;SDS011;30799;49.060;9.312;2022-08-19T07:19:59;12.80;;;11.40;;
45059;SDS011;30799;49.060;9.312;2022-08-19T07:22:32;13.27;;;11.95;;
45059;SDS011;30799;49.060;9.312;2022-08-19T07:25:01;13.82;;;12.45;;
45059;SDS011;30799;49.060;9.312;2022-08-19T07:27:29;12.82;;;11.63;;
45059;SDS011;30799;49.060;9.312;2022-08-19T07:29:59;13.55;;;12.15;;
45059;SDS011;30799;49.060;9.312;2022-08-19T07:32:26;13.82;;;12.43;;
45059;SDS011;30799;49.060;9.312;2022-08-19T07:34:53;13.13;;;11.82;;
45059;SDS011;30799;49.060;9.312;2022-08-19T07:37:21;13.27;;;11.98;;
45059;SDS011;30799;49.060;9.312;2022-08-19T07:39:48;12.68;;;11.40;;
45059;SDS011;30799;49.060;9.312;2022-08-19T07:42:15;13.25;;;11.90;;
45059;SDS011;30799;49.060;9.312;2022-08-19T07:44:43;13.10;;;11.80;;
45059;SDS011;30799;49.060;9.312;2022-08-19T07:47:15;13.48;;;12.07;;
45059;SDS011;30799;49.060;9.312;2022-08-19T07:50:03;12.77;;;11.57;;
45059;SDS011;30799;49.060;9.312;2022-08-19T07:52:33;13.27;;;11.98;;
45059;SDS011;30799;49.060;9.312;2022-08-19T07:55:02;12.10;;;10.90;;
45059;SDS011;30799;49.060;9.312;2022-08-19T07:57:29;12.75;;;11.45;;
45059;SDS011;30799;49.060;9.312;2022-08-19T07:59:56;13.13;;;11.82;;
45059;SDS011;30799;49.060;9.312;2022-08-19T08:02:23;11.88;;;10.77;;
45059;SDS011;30799;49.060;9.312;2022-08-19T08:04:50;11.77;;;10.68;;
45059;SDS011;30799;49.060;9.312;2022-08-19T08:07:35;12.20;;;11.00;;
45059;SDS011;30799;49.060;9.312;2022-08-19T08:10:20;13.13;;;11.77;;
45059;SDS011;30799;49.060;9.312;2022-08-19T08:12:50;12.50;;;11.30;;
45059;SDS011;30799;49.060;9.312;2022-08-19T08:15:35;12.35;;;11.10;;
45059;SDS011;30799;49.060;9.312;2022-08-19T08:18:07;12.20;;;10.98;;
45059;SDS011;30799;49.060;9.312;2022-08-19T08:20:34;12.07;;;10.95;;
45059;SDS011;30799;49.060;9.312;2022-08-19T08:23:01;12.18;;;11.00;;
45059;SDS011;30799;49.060;9.312;2022-08-19T08:25:47;12.48;;;11.25;;
45059;SDS011;30799;49.060;9.312;2022-08-19T08:28:18;12.07;;;10.88;;
45059;SDS011;30799;49.060;9.312;2022-08-19T08:30:46;12.10;;;10.90;;
45059;SDS011;30799;49.060;9.312;2022-08-19T08:33:19;11.75;;;10.65;;
45059;SDS011;30799;49.060;9.312;2022-08-19T08:35:59;11.25;;;10.15;;
45059;SDS011;30799;49.060;9.312;2022-08-19T08:38:29;11.82;;;10.57;;
45059;SDS011;30799;49.060;9.312;2022-08-19T08:44:03;12.18;;;10.95;;
45059;SDS011;30799;49.060;9.312;2022-08-19T08:46:34;12.40;;;11.15;;
45059;SDS011;30799;49.060;9.312;2022-08-19T08:49:15;11.32;;;10.18;;
45059;SDS011;30799;49.060;9.312;2022-08-19T08:54:50;11.88;;;10.77;;
45059;SDS011;30799;49.060;9.312;2022-08-19T08:57:35;10.95;;;9.95;;
45059;SDS011;30799;49.060;9.312;2022-08-19T09:00:27;11.38;;;10.27;;
45059;SDS011;30799;49.060;9.312;2022-08-19T09:02:59;11.50;;;10.30;;
45059;SDS011;30799;49.060;9.312;2022-08-19T09:05:50;11.00;;;10.00;;
45059;SDS011;30799;49.060;9.312;2022-08-19T09:08:49;10.68;;;9.68;;
45059;SDS011;30799;49.060;9.312;2022-08-19T09:11:50;11.65;;;10.55;;
45059;SDS011;30799;49.060;9.312;2022-08-19T09:17:17;11.32;;;10.25;;
45059;SDS011;30799;49.060;9.312;2022-08-19T09:19:55;11.63;;;10.52;;
45059;SDS011;30799;49.060;9.312;2022-08-19T09:22:24;10.90;;;9.80;;
45059;SDS011;30799;49.060;9.312;2022-08-19T09:24:53;11.77;;;10.63;;
45059;SDS011;30799;49.060;9.312;2022-08-19T09:27:20;11.25;;;10.15;;
45059;SDS011;30799;49.060;9.312;2022-08-19T09:30:10;11.25;;;10.15;;
45059;SDS011;30799;49.060;9.312;2022-08-19T09:32:40;10.90;;;9.90;;
45059;SDS011;30799;49.060;9.312;2022-08-19T09:35:08;10.70;;;9.70;;
45059;SDS011;30799;49.060;9.312;2022-08-19T09:37:37;10.70;;;9.70;;
45059;SDS011;30799;49.060;9.312;2022-08-19T09:40:05;10.48;;;9.48;;
45059;SDS011;30799;49.060;9.312;2022-08-19T09:42:34;11.43;;;10.40;;
45059;SDS011;30799;49.060;9.312;2022-08-19T09:45:01;10.95;;;9.95;;
45059;SDS011;30799;49.060;9.312;2022-08-19T09:47:30;10.63;;;9.63;;
45059;SDS011;30799;49.060;9.312;2022-08-19T09:49:58;10.45;;;9.45;;
45059;SDS011;30799;49.060;9.312;2022-08-19T09:52:25;10.10;;;9.18;;
45059;SDS011;30799;49.060;9.312;2022-08-19T09:54:58;10.45;;;9.35;;
45059;SDS011;30799;49.060;9.312;2022-08-19T09:57:25;10.70;;;9.70;;
45059;SDS011;30799;49.060;9.312;2022-08-19T09:59:52;10.48;;;9.48;;
45059;SDS011;30799;49.060;9.312;2022-08-19T10:02:19;10.88;;;9.77;;
45059;SDS011;30799;49.060;9.312;2022-08-19T10:04:47;10.55;;;9.55;;
45059;SDS011;30799;49.060;9.312;2022-08-19T10:07:32;10.95;;;9.88;;
45059;SDS011;30799;49.060;9.312;2022-08-19T10:10:03;10.50;;;9.50;;
45059;SDS011;30799;49.060;9.312;2022-08-19T10:12:33;9.60;;;8.63;;
45059;SDS011;30799;49.060;9.312;2022-08-19T10:15:00;10.48;;;9.48;;
45059;SDS011;30799;49.060;9.312;2022-08-19T10:17:27;10.57;;;9.57;;
45059;SDS011;30799;49.060;9.312;2022-08-19T10:19:58;9.77;;;8.87;;
45059;SDS011;30799;49.060;9.312;2022-08-19T10:22:26;10.52;;;9.60;;
45059;SDS011;30799;49.060;9.312;2022-08-19T10:24:53;10.20;;;9.30;;
45059;SDS011;30799;49.060;9.312;2022-08-19T10:27:20;10.05;;;9.15;;
45059;SDS011;30799;49.060;9.312;2022-08-19T10:29:46;9.80;;;8.90;;
45059;SDS011;30799;49.060;9.312;2022-08-19T10:32:14;9.55;;;8.65;;
45059;SDS011;30799;49.060;9.312;2022-08-19T10:34:41;10.13;;;9.13;;
45059;SDS011;30799;49.060;9.312;2022-08-19T10:37:14;9.90;;;9.00;;
45059;SDS011;30799;49.060;9.312;2022-08-19T10:39:54;9.45;;;8.55;;
45059;SDS011;30799;49.060;9.312;2022-08-19T10:42:21;10.63;;;9.63;;
45059;SDS011;30799;49.060;9.312;2022-08-19T10:44:48;10.07;;;9.18;;
45059;SDS011;30799;49.060;9.312;2022-08-19T10:47:17;10.13;;;9.23;;
45059;SDS011;30799;49.060;9.312;2022-08-19T10:49:51;9.57;;;8.68;;
45059;SDS011;30799;49.060;9.312;2022-08-19T10:52:39;9.60;;;8.70;;
45059;SDS011;30799;49.060;9.312;2022-08-19T10:55:15;9.80;;;8.80;;
45059;SDS011;30799;49.060;9.312;2022-08-19T10:58:03;8.98;;;8.15;;
45059;SDS011;30799;49.060;9.312;2022-08-19T11:00:36;9.63;;;8.73;;
45059;SDS011;30799;49.060;9.312;2022-08-19T11:03:03;9.10;;;8.20;;
45059;SDS011;30799;49.060;9.312;2022-08-19T11:05:29;9.95;;;9.02;;
45059;SDS011;30799;49.060;9.312;2022-08-19T11:08:04;9.48;;;8.57;;
45059;SDS011;30799;49.060;9.312;2022-08-19T11:10:48;10.10;;;9.13;;
45059;SDS011;30799;49.060;9.312;2022-08-19T11:13:15;9.60;;;8.70;;
45059;SDS011;30799;49.060;9.312;2022-08-19T11:15:42;9.48;;;8.40;;
45059;SDS011;30799;49.060;9.312;2022-08-19T11:18:09;9.43;;;8.52;;
45059;SDS011;30799;49.060;9.312;2022-08-19T11:20:38;8.70;;;7.90;;
45059;SDS011;30799;49.060;9.312;2022-08-19T11:23:05;8.95;;;8.15;;
45059;SDS011;30799;49.060;9.312;2022-08-19T11:25:32;8.95;;;8.15;;
45059;SDS011;30799;49.060;9.312;2022-08-19T11:27:59;9.02;;;8.23;;
45059;SDS011;30799;49.060;9.312;2022-08-19T11:30:25;9.13;;;8.32;;
45059;SDS011;30799;49.060;9.312;2022-08-19T11:32:53;8.50;;;7.72;;
45059;SDS011;30799;49.060;9.312;2022-08-19T11:35:20;9.20;;;8.32;;
45059;SDS011;30799;49.060;9.312;2022-08-19T11:37:49;9.40;;;8.50;;
45059;SDS011;30799;49.060;9.312;2022-08-19T11:40:16;8.73;;;7.93;;
45059;SDS011;30799;49.060;9.312;2022-08-19T11:42:42;9.43;;;8.63;;
45059;SDS011;30799;49.060;9.312;2022-08-19T11:45:23;8.68;;;7.88;;
45059;SDS011;30799;49.060;9.312;2022-08-19T11:47:50;8.90;;;8.10;;
45059;SDS011;30799;49.060;9.312;2022-08-19T11:50:17;7.72;;;7.03;;
45059;SDS011;30799;49.060;9.312;2022-08-19T11:52:44;8.95;;;8.15;;
45059;SDS011;30799;49.060;9.312;2022-08-19T11:55:12;8.18;;;7.47;;
45059;SDS011;30799;49.060;9.312;2022-08-19T11:57:39;8.43;;;7.63;;
45059;SDS011;30799;49.060;9.312;2022-08-19T12:00:07;8.77;;;7.97;;
45059;SDS011;30799;49.060;9.312;2022-08-19T12:02:36;8.52;;;7.72;;
45059;SDS011;30799;49.060;9.312;2022-08-19T12:05:03;8.35;;;7.50;;
45059;SDS011;30799;49.060;9.312;2022-08-19T12:07:36;8.50;;;7.80;;
45059;SDS011;30799;49.060;9.312;2022-08-19T12:10:03;9.38;;;8.48;;
45059;SDS011;30799;49.060;9.312;2022-08-19T12:12:30;8.52;;;7.75;;
45059;SDS011;30799;49.060;9.312;2022-08-19T12:14:57;8.73;;;7.93;;
45059;SDS011;30799;49.060;9.312;2022-08-19T12:17:25;8.43;;;7.68;;
45059;SDS011;30799;49.060;9.312;2022-08-19T12:19:53;8.13;;;7.32;;
45059;SDS011;30799;49.060;9.312;2022-08-19T12:22:20;8.23;;;7.53;;
45059;SDS011;30799;49.060;9.312;2022-08-19T12:24:47;8.20;;;7.50;;
45059;SDS011;30799;49.060;9.312;2022-08-19T12:27:17;8.10;;;7.40;;
45059;SDS011;30799;49.060;9.312;2022-08-19T12:30:05;8.40;;;7.60;;
45059;SDS011;30799;49.060;9.312;2022-08-19T12:32:34;8.35;;;7.55;;
45059;SDS011;30799;49.060;9.312;2022-08-19T12:35:01;10.30;;;7.85;;
45059;SDS011;30799;49.060;9.312;2022-08-19T12:37:27;7.95;;;7.25;;
45059;SDS011;30799;49.060;9.312;2022-08-19T12:39:54;8.68;;;7.88;;
45059;SDS011;30799;49.060;9.312;2022-08-19T12:42:21;8.13;;;7.40;;
45059;SDS011;30799;49.060;9.312;2022-08-19T12:44:48;8.20;;;7.40;;
45059;SDS011;30799;49.060;9.312;2022-08-19T12:47:15;7.57;;;6.88;;
45059;SDS011;30799;49.060;9.312;2022-08-19T12:49:44;7.20;;;6.50;;
45059;SDS011;30799;49.060;9.312;2022-08-19T12:52:20;7.32;;;6.63;;
45059;SDS011;30799;49.060;9.312;2022-08-19T12:54:53;8.00;;;7.32;;
45059;SDS011;30799;49.060;9.312;2022-08-19T12:57:25;8.10;;;7.40;;
45059;SDS011;30799;49.060;9.312;2022-08-19T12:59:58;7.75;;;7.05;;
45059;SDS011;30799;49.060;9.312;2022-08-19T13:02:37;7.38;;;6.78;;
45059;SDS011;30799;49.060;9.312;2022-08-19T13:05:05;7.20;;;6.60;;
45059;SDS011;30799;49.060;9.312;2022-08-19T13:07:34;7.22;;;6.63;;
45059;SDS011;30799;49.060;9.312;2022-08-19T13:10:02;7.40;;;6.70;;
45059;SDS011;30799;49.060;9.312;2022-08-19T13:12:29;7.68;;;6.97;;
45059;SDS011;30799;49.060;9.312;2022-08-19T13:14:56;7.80;;;7.10;;
45059;SDS011;30799;49.060;9.312;2022-08-19T13:17:23;7.28;;;6.65;;
45059;SDS011;30799;49.060;9.312;2022-08-19T13:19:50;7.50;;;6.80;;
45059;SDS011;30799;49.060;9.312;2022-08-19T13:22:17;7.70;;;7.00;;
45059;SDS011;30799;49.060;9.312;2022-08-19T13:24:43;7.00;;;6.40;;
45059;SDS011;30799;49.060;9.312;2022-08-19T13:27:12;7.07;;;6.47;;
45059;SDS011;30799;49.060;9.312;2022-08-19T13:29:42;7.03;;;6.43;;
45059;SDS011;30799;49.060;9.312;2022-08-19T13:32:28;7.43;;;6.82;;
45059;SDS011;30799;49.060;9.312;2022-08-19T13:35:15;7.85;;;7.15;;
45059;SDS011;30799;49.060;9.312;2022-08-19T13:37:43;7.13;;;6.50;;
45059;SDS011;30799;49.060;9.312;2022-08-19T13:40:12;6.85;;;6.25;;
45059;SDS011;30799;49.060;9.312;2022-08-19T13:42:46;7.50;;;6.80;;
45059;SDS011;30799;49.060;9.312;2022-08-19T13:45:16;7.43;;;6.72;;
45059;SDS011;30799;49.060;9.312;2022-08-19T13:47:46;6.88;;;6.28;;
45059;SDS011;30799;49.060;9.312;2022-08-19T13:50:16;6.97;;;6.38;;
45059;SDS011;30799;49.060;9.312;2022-08-19T13:52:44;7.13;;;6.53;;
45059;SDS011;30799;49.060;9.312;2022-08-19T13:55:14;7.57;;;6.97;;
45059;SDS011;30799;49.060;9.312;2022-08-19T13:57:50;6.90;;;6.30;;
45059;SDS011;30799;49.060;9.312;2022-08-19T14:00:19;7.68;;;6.97;;
45059;SDS011;30799;49.060;9.312;2022-08-19T14:02:49;7.22;;;6.63;;
45059;SDS011;30799;49.060;9.312;2022-08-19T14:05:18;7.20;;;6.50;;
45059;SDS011;30799;49.060;9.312;2022-08-19T14:07:46;6.78;;;6.28;;
45059;SDS011;30799;49.060;9.312;2022-08-19T14:10:14;6.53;;;6.03;;
45059;SDS011;30799;49.060;9.312;2022-08-19T14:12:42;7.20;;;6.50;;
45059;SDS011;30799;49.060;9.312;2022-08-19T14:15:09;7.25;;;6.55;;
45059;SDS011;30799;49.060;9.312;2022-08-19T14:17:41;7.15;;;6.45;;
45059;SDS011;30799;49.060;9.312;2022-08-19T14:22:43;6.45;;;5.85;;
45059;SDS011;30799;49.060;9.312;2022-08-19T14:25:14;6.95;;;6.35;;
45059;SDS011;30799;49.060;9.312;2022-08-19T14:27:43;6.25;;;5.75;;
45059;SDS011;30799;49.060;9.312;2022-08-19T14:30:10;6.65;;;6.07;;
45059;SDS011;30799;49.060;9.312;2022-08-19T14:32:40;6.72;;;6.13;;
45059;SDS011;30799;49.060;9.312;2022-08-19T14:35:10;6.95;;;6.35;;
45059;SDS011;30799;49.060;9.312;2022-08-19T14:37:38;6.70;;;6.10;;
45059;SDS011;30799;49.060;9.312;2022-08-19T14:40:11;6.57;;;5.97;;
45059;SDS011;30799;49.060;9.312;2022-08-19T14:42:41;6.45;;;5.90;;
45059;SDS011;30799;49.060;9.312;2022-08-19T14:45:09;7.40;;;6.70;;
45059;SDS011;30799;49.060;9.312;2022-08-19T14:47:37;6.47;;;5.97;;
45059;SDS011;30799;49.060;9.312;2022-08-19T14:50:08;6.53;;;5.93;;
45059;SDS011;30799;49.060;9.312;2022-08-19T14:52:44;5.90;;;5.40;;
45059;SDS011;30799;49.060;9.312;2022-08-19T14:55:12;6.57;;;5.97;;
45059;SDS011;30799;49.060;9.312;2022-08-19T14:57:42;14.77;;;6.10;;
45059;SDS011;30799;49.060;9.312;2022-08-19T15:00:10;6.70;;;4.75;;
45059;SDS011;30799;49.060;9.312;2022-08-19T15:02:40;5.13;;;4.55;;
45059;SDS011;30799;49.060;9.312;2022-08-19T15:05:07;5.28;;;4.78;;
45059;SDS011;30799;49.060;9.312;2022-08-19T15:07:34;5.25;;;4.50;;
45059;SDS011;30799;49.060;9.312;2022-08-19T15:10:02;6.47;;;5.75;;
45059;SDS011;30799;49.060;9.312;2022-08-19T15:12:30;10.13;;;6.63;;